createdAt,value
2022-08-27T00:02:15.257Z,21.70
2022-08-27T00:04:44.509Z,25.05
2022-08-27T00:07:13.312Z,21.02
2022-08-27T00:09:42.044Z,19.95
2022-08-27T00:12:12.455Z,23.60
2022-08-27T00:14:41.194Z,22.50
2022-08-27T00:17:09.769Z,24.50
2022-08-27T00:19:38.687Z,25.35
2022-08-27T00:22:07.744Z,20.70
2022-08-27T00:24:38.397Z,22.60
2022-08-27T00:27:19.150Z,23.42
2022-08-27T00:29:47.676Z,22.83
2022-08-27T00:32:16.193Z,23.08
2022-08-27T00:34:44.870Z,20.60
2022-08-27T00:37:13.722Z,21.48
2022-08-27T00:39:42.227Z,23.80
2022-08-27T00:42:10.729Z,29.10
2022-08-27T00:44:40.866Z,26.05
2022-08-27T00:47:10.503Z,25.30
2022-08-27T00:49:42.164Z,26.15
2022-08-27T00:52:20.569Z,28.70
2022-08-27T00:54:49.554Z,24.77
2022-08-27T00:57:19.401Z,27.75
2022-08-27T00:59:49.306Z,29.63
2022-08-27T01:02:21.088Z,29.88
2022-08-27T01:04:51.700Z,27.52
2022-08-27T01:07:20.793Z,28.13
2022-08-27T01:09:50.211Z,23.30
2022-08-27T01:12:20.831Z,29.70
2022-08-27T01:14:51.012Z,23.83
2022-08-27T01:17:19.686Z,26.08
2022-08-27T01:19:51.087Z,28.42
2022-08-27T01:22:25.287Z,24.35
2022-08-27T01:24:57.703Z,20.42
2022-08-27T01:27:28.564Z,21.58
2022-08-27T01:29:57.682Z,29.00
2022-08-27T01:32:28.113Z,21.38
2022-08-27T01:34:57.182Z,22.98
2022-08-27T01:37:26.977Z,23.58
2022-08-27T01:39:59.160Z,25.17
2022-08-27T01:42:30.380Z,24.77
2022-08-27T01:44:59.730Z,30.73
2022-08-27T01:47:30.768Z,23.35
2022-08-27T01:50:00.465Z,26.33
2022-08-27T01:52:30.353Z,21.52
2022-08-27T01:55:00.531Z,24.70
2022-08-27T01:57:29.046Z,23.30
2022-08-27T01:59:58.365Z,23.83
2022-08-27T02:02:27.295Z,23.65
2022-08-27T02:04:55.935Z,22.50
2022-08-27T02:07:24.408Z,28.15
2022-08-27T02:09:53.243Z,21.67
2022-08-27T02:12:23.283Z,28.70
2022-08-27T02:14:52.450Z,24.23
2022-08-27T02:17:20.926Z,22.25
2022-08-27T02:19:49.412Z,21.60
2022-08-27T02:22:18.033Z,24.60
2022-08-27T02:24:46.949Z,24.15
2022-08-27T02:27:15.666Z,20.75
2022-08-27T02:29:49.833Z,20.27
2022-08-27T02:32:23.850Z,20.10
2022-08-27T02:35:00.597Z,20.35
2022-08-27T02:37:29.270Z,20.13
2022-08-27T02:39:58.030Z,20.05
2022-08-27T02:42:26.676Z,20.85
2022-08-27T02:44:56.512Z,19.67
2022-08-27T02:47:24.981Z,23.13
2022-08-27T02:49:53.472Z,19.95
2022-08-27T02:52:24.795Z,16.30
2022-08-27T02:54:53.612Z,19.00
2022-08-27T02:57:22.606Z,19.23
2022-08-27T02:59:51.145Z,17.08
2022-08-27T03:02:22.047Z,17.92
2022-08-27T03:04:51.409Z,18.35
2022-08-27T03:07:23.821Z,18.75
2022-08-27T03:09:52.568Z,16.42
2022-08-27T03:12:22.729Z,15.32
2022-08-27T03:14:53.212Z,19.42
2022-08-27T03:17:55.185Z,15.93
2022-08-27T03:20:23.985Z,18.40
2022-08-27T03:22:52.566Z,17.77
2022-08-27T03:25:21.415Z,18.38
2022-08-27T03:27:49.893Z,21.52
2022-08-27T03:30:19.810Z,19.25
2022-08-27T03:32:49.808Z,21.42
2022-08-27T03:35:18.351Z,19.48
2022-08-27T03:37:47.115Z,20.48
2022-08-27T03:40:16.201Z,17.33
2022-08-27T03:42:44.915Z,16.50
2022-08-27T03:45:14.139Z,19.65
2022-08-27T03:47:42.658Z,20.90
2022-08-27T03:50:12.865Z,21.90
2022-08-27T03:52:41.399Z,15.15
2022-08-27T03:55:10.554Z,18.00
2022-08-27T03:57:40.979Z,22.38
2022-08-27T04:00:13.231Z,19.58
2022-08-27T04:02:42.305Z,14.88
2022-08-27T04:05:13.330Z,23.17
2022-08-27T04:07:42.104Z,17.95
2022-08-27T04:10:12.212Z,15.80
2022-08-27T04:12:40.898Z,16.27
2022-08-27T04:15:10.536Z,14.30
2022-08-27T04:17:39.131Z,16.75
2022-08-27T04:20:31.719Z,21.08
2022-08-27T04:22:58.710Z,17.27
2022-08-27T04:25:27.555Z,15.80
2022-08-27T04:27:56.052Z,15.60
2022-08-27T04:30:24.546Z,18.90
2022-08-27T04:32:53.039Z,15.15
2022-08-27T04:35:21.990Z,14.70
2022-08-27T04:37:50.487Z,13.98
2022-08-27T04:40:20.423Z,13.38
2022-08-27T04:42:48.912Z,12.02
2022-08-27T04:45:17.553Z,13.55
2022-08-27T04:47:46.031Z,16.25
2022-08-27T04:50:14.497Z,15.73
2022-08-27T04:52:43.306Z,14.40
2022-08-27T04:55:12.479Z,11.75
2022-08-27T04:57:42.681Z,12.63
2022-08-27T05:00:11.587Z,11.95
2022-08-27T05:02:40.102Z,12.82
2022-08-27T05:05:12.004Z,13.27
2022-08-27T05:07:43.497Z,11.80
2022-08-27T05:10:12.205Z,13.65
2022-08-27T05:12:42.330Z,13.95
2022-08-27T05:15:11.493Z,11.75
2022-08-27T05:17:39.964Z,11.70
2022-08-27T05:20:09.566Z,11.73
2022-08-27T05:22:38.077Z,12.77
2022-08-27T05:25:07.391Z,12.07
2022-08-27T05:27:36.411Z,10.82
2022-08-27T05:30:06.583Z,10.75
2022-08-27T05:32:35.025Z,10.43
2022-08-27T05:35:03.490Z,10.90
2022-08-27T05:37:34.149Z,13.20
2022-08-27T05:40:02.820Z,12.10
2022-08-27T05:42:31.683Z,12.40
2022-08-27T05:45:00.272Z,14.23
2022-08-27T05:47:30.148Z,11.40
2022-08-27T05:49:58.637Z,15.05
2022-08-27T05:52:27.299Z,12.23
2022-08-27T05:54:55.756Z,12.38
2022-08-27T05:57:24.287Z,16.10
2022-08-27T06:00:15.626Z,13.00
2022-08-27T06:02:46.799Z,10.75
2022-08-27T06:05:15.412Z,12.15
2022-08-27T06:07:44.127Z,13.00
2022-08-27T06:10:13.107Z,9.75
2022-08-27T06:12:41.627Z,9.40
2022-08-27T06:15:10.654Z,11.80
2022-08-27T06:17:39.459Z,9.52
2022-08-27T06:20:11.082Z,10.25
2022-08-27T06:22:39.893Z,8.15
2022-08-27T06:25:08.652Z,11.38
2022-08-27T06:27:37.233Z,11.05
2022-08-27T06:30:06.287Z,10.57
2022-08-27T06:32:34.766Z,14.00
2022-08-27T06:35:03.344Z,13.20
2022-08-27T06:37:36.363Z,10.05
2022-08-27T06:40:05.658Z,10.07
2022-08-27T06:42:34.839Z,9.75
2022-08-27T06:45:04.483Z,11.65
2022-08-27T06:47:33.351Z,9.20
2022-08-27T06:50:02.231Z,10.55
2022-08-27T06:52:30.683Z,9.85
2022-08-27T06:55:00.621Z,14.82
2022-08-27T06:57:29.196Z,12.45
2022-08-27T06:59:57.710Z,8.50
2022-08-27T07:02:26.259Z,9.65
2022-08-27T07:04:54.894Z,9.13
2022-08-27T07:07:30.228Z,12.15
2022-08-27T07:10:05.739Z,11.48
2022-08-27T07:12:34.209Z,10.18
2022-08-27T07:15:02.702Z,11.57
2022-08-27T07:17:31.196Z,13.85
2022-08-27T07:19:59.706Z,13.68
2022-08-27T07:22:29.120Z,14.50
2022-08-27T07:24:57.519Z,17.15
2022-08-27T07:27:27.291Z,11.27
2022-08-27T07:29:55.599Z,15.07
2022-08-27T07:32:23.907Z,18.45
2022-08-27T07:34:58.812Z,18.52
2022-08-27T07:37:32.426Z,17.85
2022-08-27T07:40:05.296Z,16.27
2022-08-27T07:42:52.667Z,16.63
2022-08-27T07:45:21.029Z,13.73
2022-08-27T07:47:51.260Z,15.65
2022-08-27T07:50:20.841Z,18.02
2022-08-27T07:52:49.501Z,19.13
2022-08-27T07:55:17.853Z,12.50
2022-08-27T07:57:48.980Z,10.30
2022-08-27T08:00:17.723Z,19.08
2022-08-27T08:02:47.439Z,21.08
2022-08-27T08:05:16.817Z,17.70
2022-08-27T08:07:45.080Z,13.60
2022-08-27T08:10:13.822Z,14.98
2022-08-27T08:12:42.550Z,20.17
2022-08-27T08:15:13.705Z,16.33
2022-08-27T08:17:42.446Z,19.90
2022-08-27T08:20:27.515Z,19.65
2022-08-27T08:23:03.975Z,19.00
2022-08-27T08:25:38.415Z,16.98
2022-08-27T08:28:07.672Z,17.38
2022-08-27T08:30:37.419Z,16.60
2022-08-27T08:33:05.911Z,16.02
2022-08-27T08:35:40.513Z,17.20
2022-08-27T08:38:09.605Z,15.18
2022-08-27T08:40:41.699Z,15.85
2022-08-27T08:43:21.660Z,21.63
2022-08-27T08:45:52.986Z,18.45
2022-08-27T08:48:23.794Z,15.27
2022-08-27T08:50:56.734Z,21.42
2022-08-27T08:53:38.103Z,20.30
2022-08-27T08:56:11.156Z,20.35
2022-08-27T08:58:47.255Z,20.23
2022-08-27T09:01:20.893Z,21.33
2022-08-27T09:03:55.153Z,18.52
2022-08-27T09:06:37.487Z,21.20
2022-08-27T09:09:15.484Z,23.23
2022-08-27T09:11:53.434Z,18.65
2022-08-27T09:14:31.423Z,16.85
2022-08-27T09:17:07.156Z,18.23
2022-08-27T09:19:39.955Z,18.48
2022-08-27T09:22:21.031Z,23.80
2022-08-27T09:25:01.136Z,19.98
2022-08-27T09:27:30.369Z,22.42
2022-08-27T09:29:58.983Z,19.65
2022-08-27T09:32:34.228Z,22.90
2022-08-27T09:35:09.411Z,23.48
2022-08-27T09:37:43.290Z,28.15
2022-08-27T09:40:24.094Z,30.75
2022-08-27T09:42:54.666Z,23.63
2022-08-27T09:45:25.761Z,23.40
2022-08-27T09:47:57.167Z,22.13
2022-08-27T09:50:41.720Z,24.88
2022-08-27T09:53:20.736Z,29.45
2022-08-27T09:55:54.434Z,42.55
2022-08-27T09:58:27.053Z,27.75
2022-08-27T10:01:02.888Z,25.17
2022-08-27T10:03:33.644Z,27.77
2022-08-27T10:06:02.496Z,23.73
2022-08-27T10:08:37.054Z,24.23
2022-08-27T10:11:11.232Z,27.23
2022-08-27T10:13:46.872Z,27.67
2022-08-27T10:16:47.415Z,24.90
2022-08-27T10:19:36.631Z,25.40
2022-08-27T10:22:11.911Z,28.45
2022-08-27T10:24:53.267Z,26.45
2022-08-27T10:27:28.524Z,27.35
2022-08-27T10:30:03.605Z,25.42
2022-08-27T10:32:55.234Z,27.77
2022-08-27T10:35:35.119Z,46.10
2022-08-27T10:38:22.968Z,30.75
2022-08-27T10:40:57.323Z,30.92
2022-08-27T10:43:42.053Z,30.85
2022-08-27T10:46:30.421Z,22.95
2022-08-27T10:49:07.290Z,27.75
2022-08-27T10:51:45.602Z,25.77
2022-08-27T10:54:20.694Z,25.40
2022-08-27T10:57:14.575Z,36.10
2022-08-27T10:59:52.542Z,26.38
2022-08-27T11:02:29.284Z,28.95
2022-08-27T11:05:03.549Z,24.70
2022-08-27T11:07:37.664Z,28.30
2022-08-27T11:10:09.976Z,35.75
2022-08-27T11:12:42.683Z,27.30
2022-08-27T11:15:16.010Z,28.73
2022-08-27T11:17:50.646Z,25.08
2022-08-27T11:20:23.827Z,21.77
2022-08-27T11:22:58.147Z,25.52
2022-08-27T11:25:40.275Z,23.08
2022-08-27T11:28:12.773Z,22.83
2022-08-27T11:30:53.899Z,23.00
2022-08-27T11:33:28.229Z,20.70
2022-08-27T11:36:17.360Z,26.98
2022-08-27T11:38:55.757Z,26.33
2022-08-27T11:41:45.052Z,26.15
2022-08-27T11:44:15.277Z,33.63
2022-08-27T11:46:46.626Z,26.17
2022-08-27T11:49:28.149Z,20.65
2022-08-27T11:52:03.656Z,26.08
2022-08-27T11:54:45.887Z,23.33
2022-08-27T11:57:28.222Z,21.20
2022-08-27T11:59:56.684Z,22.30
2022-08-27T12:02:27.136Z,25.00
2022-08-27T12:05:08.722Z,23.48
2022-08-27T12:07:39.839Z,25.10
2022-08-27T12:10:21.371Z,25.58
2022-08-27T12:13:13.263Z,25.65
2022-08-27T12:15:58.336Z,23.95
2022-08-27T12:18:43.805Z,19.77
2022-08-27T12:21:24.973Z,26.83
2022-08-27T12:24:16.476Z,22.63
2022-08-27T12:26:57.142Z,25.50
2022-08-27T12:29:31.352Z,24.58
2022-08-27T12:32:20.863Z,26.48
2022-08-27T12:34:59.062Z,23.20
2022-08-27T12:37:31.812Z,24.52
2022-08-27T12:40:03.895Z,22.80
2022-08-27T12:42:33.639Z,32.03
2022-08-27T12:45:01.896Z,26.45
2022-08-27T12:47:34.462Z,25.33
2022-08-27T12:50:03.678Z,23.95
2022-08-27T12:53:02.012Z,22.67
2022-08-27T12:55:41.149Z,21.50
2022-08-27T12:58:17.916Z,21.88
2022-08-27T13:01:08.556Z,21.98
2022-08-27T13:03:40.787Z,23.55
2022-08-27T13:06:18.664Z,21.73
2022-08-27T13:08:49.313Z,18.98
2022-08-27T13:11:22.330Z,23.83
2022-08-27T13:13:52.910Z,21.00
2022-08-27T13:16:23.553Z,24.15
2022-08-27T13:18:52.585Z,25.13
2022-08-27T13:21:24.341Z,25.13
2022-08-27T13:23:57.442Z,25.98
2022-08-27T13:26:29.891Z,19.90
2022-08-27T13:29:03.550Z,26.30
2022-08-27T13:31:34.527Z,24.30
2022-08-27T13:34:06.434Z,21.98
2022-08-27T13:36:38.158Z,26.48
2022-08-27T13:39:09.704Z,23.83
2022-08-27T13:41:39.282Z,29.38
2022-08-27T13:44:11.619Z,23.10
2022-08-27T13:46:47.624Z,20.17
2022-08-27T13:49:19.919Z,27.10
2022-08-27T13:51:48.965Z,18.45
2022-08-27T13:54:18.332Z,27.15
2022-08-27T13:57:08.826Z,25.63
2022-08-27T13:59:43.296Z,19.92
2022-08-27T14:02:31.119Z,18.00
2022-08-27T14:05:11.365Z,21.23
2022-08-27T14:07:43.125Z,21.13
2022-08-27T14:10:27.895Z,16.67
2022-08-27T14:12:59.844Z,14.82
2022-08-27T14:15:34.683Z,11.68
2022-08-27T14:18:04.584Z,17.08
2022-08-27T14:20:33.000Z,21.55
2022-08-27T14:23:01.340Z,17.92
2022-08-27T14:25:29.911Z,10.52
2022-08-27T14:27:58.320Z,14.57
2022-08-27T14:30:29.882Z,12.15
2022-08-27T14:33:02.552Z,10.50
2022-08-27T14:35:32.366Z,14.23
2022-08-27T14:38:06.064Z,11.48
2022-08-27T14:40:35.455Z,10.10
2022-08-27T14:43:05.529Z,10.45
2022-08-27T14:45:34.935Z,10.98
2022-08-27T14:48:07.365Z,15.45
2022-08-27T14:50:44.234Z,59.83
2022-08-27T14:53:12.460Z,28.65
2022-08-27T14:55:40.707Z,29.33
2022-08-27T14:58:08.978Z,26.02
2022-08-27T15:00:38.651Z,13.90
2022-08-27T15:03:09.279Z,12.27
2022-08-27T15:05:37.630Z,15.23
2022-08-27T15:08:06.275Z,15.35
2022-08-27T15:10:41.420Z,14.75
2022-08-27T15:13:11.480Z,13.32
2022-08-27T15:15:40.059Z,13.20
2022-08-27T15:18:10.282Z,9.77
2022-08-27T15:20:38.794Z,11.05
2022-08-27T15:23:07.202Z,11.45
2022-08-27T15:25:35.805Z,13.93
2022-08-27T15:28:05.270Z,11.77
2022-08-27T15:30:34.242Z,12.43
2022-08-27T15:33:04.626Z,12.48
2022-08-27T15:35:34.627Z,12.05
2022-08-27T15:38:03.327Z,17.70
2022-08-27T15:40:36.042Z,18.40
2022-08-27T15:43:07.414Z,14.73
2022-08-27T15:45:37.300Z,19.85
2022-08-27T15:48:08.875Z,15.77
2022-08-27T15:50:42.300Z,19.25
2022-08-27T15:53:11.404Z,18.25
2022-08-27T15:55:45.607Z,13.55
2022-08-27T15:58:13.951Z,17.45
2022-08-27T16:00:44.302Z,17.30
2022-08-27T16:03:15.040Z,11.95
2022-08-27T16:05:46.055Z,13.27
2022-08-27T16:08:15.175Z,10.18
2022-08-27T16:10:43.748Z,12.80
2022-08-27T16:13:12.281Z,12.60
2022-08-27T16:15:41.065Z,13.40
2022-08-27T16:18:12.847Z,13.50
2022-08-27T16:20:42.413Z,15.82
2022-08-27T16:23:14.244Z,13.15
2022-08-27T16:25:42.950Z,13.98
2022-08-27T16:28:12.525Z,9.52
2022-08-27T16:30:44.644Z,12.35
2022-08-27T16:33:14.349Z,10.35
2022-08-27T16:35:43.264Z,12.50
2022-08-27T16:38:13.402Z,12.88
2022-08-27T16:40:43.807Z,15.45
2022-08-27T16:43:14.855Z,13.48
2022-08-27T16:45:43.368Z,15.05
2022-08-27T16:48:29.467Z,14.50
2022-08-27T16:50:58.665Z,16.35
2022-08-27T16:53:28.976Z,15.38
2022-08-27T16:55:57.584Z,15.60
2022-08-27T16:58:27.258Z,15.95
2022-08-27T17:00:57.072Z,13.77
2022-08-27T17:03:26.091Z,13.35
2022-08-27T17:05:58.086Z,16.40
2022-08-27T17:08:30.346Z,16.02
2022-08-27T17:10:58.965Z,14.38
2022-08-27T17:13:28.498Z,17.98
2022-08-27T17:15:57.334Z,14.30
2022-08-27T17:18:27.806Z,11.32
2022-08-27T17:20:57.372Z,14.77
2022-08-27T17:23:27.810Z,13.98
2022-08-27T17:25:57.748Z,13.35
2022-08-27T17:28:26.363Z,12.50
2022-08-27T17:30:54.979Z,13.27
2022-08-27T17:33:26.335Z,11.88
2022-08-27T17:35:54.842Z,11.43
2022-08-27T17:38:23.398Z,12.60
2022-08-27T17:40:53.427Z,11.82
2022-08-27T17:43:24.053Z,12.20
2022-08-27T17:45:53.061Z,10.52
2022-08-27T17:48:26.057Z,12.63
2022-08-27T17:50:55.674Z,10.60
2022-08-27T17:53:24.203Z,13.13
2022-08-27T17:55:52.961Z,12.27
2022-08-27T17:58:23.028Z,12.00
2022-08-27T18:00:52.059Z,17.13
2022-08-27T18:03:21.369Z,12.68
2022-08-27T18:05:50.060Z,13.77
2022-08-27T18:08:18.735Z,16.00
2022-08-27T18:10:49.215Z,15.45
2022-08-27T18:13:18.817Z,15.98
2022-08-27T18:15:50.291Z,16.20
2022-08-27T18:18:18.782Z,13.95
2022-08-27T18:20:47.361Z,11.75
2022-08-27T18:23:16.036Z,12.23
2022-08-27T18:25:45.682Z,15.32
2022-08-27T18:28:15.046Z,15.60
2022-08-27T18:30:45.022Z,15.02
2022-08-27T18:33:15.287Z,12.40
2022-08-27T18:35:44.348Z,16.98
2022-08-27T18:38:13.371Z,15.98
2022-08-27T18:40:43.535Z,21.17
2022-08-27T18:43:12.255Z,21.45
2022-08-27T18:45:40.828Z,19.48
2022-08-27T18:48:12.721Z,23.25
2022-08-27T18:50:45.196Z,25.67
2022-08-27T18:53:14.555Z,28.65
2022-08-27T18:55:43.096Z,26.80
2022-08-27T18:58:11.879Z,20.67
2022-08-27T19:00:41.921Z,17.05
2022-08-27T19:03:10.554Z,14.82
2022-08-27T19:05:39.046Z,18.35
2022-08-27T19:08:13.233Z,12.90
2022-08-27T19:10:41.849Z,14.88
2022-08-27T19:13:10.302Z,16.58
2022-08-27T19:15:39.133Z,14.40
2022-08-27T19:18:09.190Z,20.02
2022-08-27T19:20:37.735Z,12.18
2022-08-27T19:23:06.279Z,14.68
2022-08-27T19:25:36.411Z,14.32
2022-08-27T19:28:05.233Z,11.73
2022-08-27T19:30:33.840Z,16.17
2022-08-27T19:33:02.356Z,12.63
2022-08-27T19:35:30.822Z,13.32
2022-08-27T19:37:59.333Z,13.18
2022-08-27T19:40:28.179Z,13.43
2022-08-27T19:42:58.113Z,12.85
2022-08-27T19:45:27.301Z,13.43
2022-08-27T19:47:55.799Z,13.57
2022-08-27T19:50:24.618Z,13.88
2022-08-27T19:52:53.666Z,13.98
2022-08-27T19:55:22.214Z,14.15
2022-08-27T19:57:50.762Z,12.15
2022-08-27T20:00:21.620Z,11.88
2022-08-27T20:02:50.826Z,10.63
2022-08-27T20:05:20.815Z,11.98
2022-08-27T20:07:49.911Z,13.32
2022-08-27T20:10:18.739Z,13.35
2022-08-27T20:12:47.237Z,11.68
2022-08-27T20:15:15.924Z,12.05
2022-08-27T20:17:46.006Z,13.57
2022-08-27T20:20:18.535Z,10.73
2022-08-27T20:22:47.844Z,14.13
2022-08-27T20:25:16.521Z,14.95
2022-08-27T20:27:45.013Z,12.95
2022-08-27T20:30:14.728Z,11.98
2022-08-27T20:32:43.239Z,11.10
2022-08-27T20:35:13.520Z,15.10
2022-08-27T20:37:42.646Z,11.57
2022-08-27T20:40:13.431Z,13.35
2022-08-27T20:42:41.975Z,12.38
2022-08-27T20:45:12.399Z,12.15
2022-08-27T20:47:41.312Z,13.85
2022-08-27T20:50:12.865Z,14.02
2022-08-27T20:52:44.433Z,10.02
2022-08-27T20:55:14.287Z,14.25
2022-08-27T20:58:06.517Z,12.63
2022-08-27T21:00:35.653Z,11.20
2022-08-27T21:03:04.209Z,13.48
2022-08-27T21:05:34.144Z,13.23
2022-08-27T21:08:04.096Z,11.15
2022-08-27T21:10:32.700Z,12.05
2022-08-27T21:13:04.482Z,10.93
2022-08-27T21:15:33.673Z,12.38
2022-08-27T21:18:02.203Z,13.60
2022-08-27T21:20:30.708Z,14.82
2022-08-27T21:22:59.250Z,11.23
2022-08-27T21:25:29.716Z,11.05
2022-08-27T21:27:58.262Z,13.70
2022-08-27T21:30:27.265Z,10.52
2022-08-27T21:32:56.250Z,10.80
2022-08-27T21:35:26.483Z,13.23
2022-08-27T21:37:55.136Z,11.98
2022-08-27T21:40:25.221Z,11.32
2022-08-27T21:42:55.764Z,12.30
2022-08-27T21:45:24.572Z,11.82
2022-08-27T21:47:54.140Z,10.50
2022-08-27T21:50:23.288Z,12.63
2022-08-27T21:52:52.012Z,13.18
2022-08-27T21:55:20.583Z,14.13
2022-08-27T21:57:49.515Z,11.93
2022-08-27T22:00:38.593Z,12.57
2022-08-27T22:03:10.067Z,10.52
2022-08-27T22:05:39.874Z,11.20
2022-08-27T22:08:09.612Z,12.00
2022-08-27T22:10:38.598Z,12.50
2022-08-27T22:13:07.181Z,11.18
2022-08-27T22:15:37.276Z,13.95
2022-08-27T22:18:06.289Z,12.82
2022-08-27T22:20:35.852Z,10.90
2022-08-27T22:23:05.991Z,12.32
2022-08-27T22:25:34.657Z,14.43
2022-08-27T22:28:03.163Z,14.10
2022-08-27T22:30:32.080Z,12.18
2022-08-27T22:33:01.965Z,12.10
2022-08-27T22:35:30.685Z,10.70
2022-08-27T22:38:00.605Z,14.75
2022-08-27T22:40:30.342Z,13.10
2022-08-27T22:42:59.833Z,13.30
2022-08-27T22:45:28.806Z,12.43
2022-08-27T22:47:57.254Z,14.60
2022-08-27T22:50:27.156Z,14.85
2022-08-27T22:52:55.789Z,12.35
2022-08-27T22:55:25.059Z,11.20
2022-08-27T22:57:55.394Z,17.05
2022-08-27T23:00:25.082Z,18.65
2022-08-27T23:02:53.593Z,12.50
2022-08-27T23:05:22.287Z,14.60
2022-08-27T23:07:52.244Z,13.77
2022-08-27T23:10:22.113Z,13.70
2022-08-27T23:12:53.621Z,17.83
2022-08-27T23:15:23.408Z,12.57
2022-08-27T23:17:51.879Z,13.48
2022-08-27T23:20:21.818Z,12.35
2022-08-27T23:22:51.038Z,13.20
2022-08-27T23:25:38.694Z,15.32
2022-08-27T23:28:14.074Z,12.43
2022-08-27T23:30:43.461Z,16.27
2022-08-27T23:33:11.967Z,14.88
2022-08-27T23:35:43.274Z,15.07
2022-08-27T23:38:12.407Z,16.15
2022-08-27T23:40:42.642Z,12.63
2022-08-27T23:43:11.191Z,13.35
2022-08-27T23:45:40.755Z,13.15
2022-08-27T23:48:09.559Z,14.77
2022-08-27T23:50:38.308Z,11.82
2022-08-27T23:53:07.674Z,13.13
2022-08-27T23:55:36.411Z,12.95
2022-08-27T23:58:07.692Z,11.68
